Time;durP1;ratioP1;P1;durP2;ratioP2;P2;SDS_P1;SDS_P2;PMS_P1;PMS_P2;Temp;Humidity;BMP_temperature;BMP_pressure;BME280_temperature;BME280_humidity;BME280_pressure;Samples;Min_cycle;Max_cycle;Signal;HPM_P1;HPM_P2
2022/03/29 00:00:51;;;;;;;;;;;;;;;;;;5110332;28;19950;-87
2022/03/29 00:03:17;;;;;;;;;;;;;;;;;;5109076;28;19953;-87
2022/03/29 00:05:43;;;;;;;;;;;;;;;;;;5111456;28;19915;-90
2022/03/29 00:08:09;;;;;;;;;;;;;;;;;;5111206;28;19915;-88
2022/03/29 00:10:35;;;;;;;;;;;;;;;;;;5112776;28;19944;-86
2022/03/29 00:13:01;;;;;;;;;;;;;;;;;;5109222;28;19916;-86
2022/03/29 00:15:28;;;;;;;;;;;;;;;;;;5108958;28;19976;-87
2022/03/29 00:17:54;;;;;;;;;;;;;;;;;;5108922;28;19908;-86
2022/03/29 00:20:20;;;;;;;;;;;;;;;;;;5110396;28;19962;-86
2022/03/29 00:22:50;;;;;;;;;;;;;;;;;;5110124;28;19916;-86
2022/03/29 00:25:16;;;;;;;;;;;;;;;;;;5110195;28;19911;-87
2022/03/29 00:27:42;;;;;;;;;;;;;;;;;;5108995;28;19908;-88
2022/03/29 00:30:09;;;;;;;;;;;;;;;;;;5112529;28;19912;-88
2022/03/29 00:32:35;;;;;;;;;;;;;;;;;;5113614;28;19908;-92
2022/03/29 00:35:01;;;;;;;;;;;;;;;;;;5114213;28;19919;-88
2022/03/29 00:37:26;;;;;;;;;;;;;;;;;;5113008;28;20275;-86
2022/03/29 00:39:52;;;;;;;;;;;;;;;;;;5113915;28;19908;-86
2022/03/29 00:42:18;;;;;;;;;;;;;;;;;;5113612;28;19923;-88
2022/03/29 00:44:45;;;;;;;;;;;;;;;;;;5112442;28;19907;-87
2022/03/29 00:47:11;;;;;;;;;;;;;;;;;;5112518;28;19995;-86
2022/03/29 00:49:37;;;;;;;;;;;;;;;;;;5113172;28;19947;-87
2022/03/29 00:52:03;;;;;;;;;;;;;;;;;;5113652;28;20321;-88
2022/03/29 00:54:28;;;;;;;;;;;;;;;;;;5113296;28;20091;-89
2022/03/29 00:56:54;;;;;;;;;;;;;;;;;;5112202;28;20010;-87
2022/03/29 00:59:20;;;;;;;;;;;;;;;;;;5112109;28;20003;-86
2022/03/29 01:01:46;;;;;;;;;;;;;;;;;;5113447;28;19953;-88
2022/03/29 01:04:14;;;;;;;;;;;;;;;;;;5111948;28;20399;-88
2022/03/29 01:06:40;;;;;;;;;;;;;;;;;;5112013;28;19963;-87
2022/03/29 01:09:06;;;;;;;;;;;;;;;;;;5113988;28;19995;-86
2022/03/29 01:11:32;;;;;;;;;;;;;;;;;;5112107;28;19908;-87
2022/03/29 01:13:58;;;;;;;;;;;;;;;;;;5111852;28;20279;-86
2022/03/29 01:19:09;;;;;;;;;;;;;;;;;;5113611;28;19915;-87
2022/03/29 01:21:35;;;;;;;;;;;;;;;;;;5111867;28;19907;-87
2022/03/29 01:24:01;;;;;;;;;;;;;;;;;;5111753;28;20303;-85
2022/03/29 01:26:27;;;;;;;;;;;;;;;;;;5111629;28;19908;-86
2022/03/29 01:28:53;;;;;;;;;;;;;;;;;;5113108;28;19969;-85
2022/03/29 01:31:18;;;;;;;;;;;;;;;;;;5113039;28;19961;-87
2022/03/29 01:33:47;;;;;;;;;;;;;;;;;;5112998;28;20368;-86
2022/03/29 01:36:12;;;;;;;;;;;;;;;;;;5112017;28;19907;-87
2022/03/29 01:38:40;;;;;;;;;;;;;;;;;;5112392;28;19935;-87
2022/03/29 01:41:05;;;;;;;;;;;;;;;;;;5111893;28;19915;-87
2022/03/29 01:43:32;;;;;;;;;;;;;;;;;;5112846;28;20129;-89
2022/03/29 01:45:58;;;;;;;;;;;;;;;;;;5111919;28;20013;-86
2022/03/29 01:48:24;;;;;;;;;;;;;;;;;;5111679;28;20003;-87
2022/03/29 01:50:51;;;;;;;;;;;;;;;;;;5111707;28;19907;-88
2022/03/29 01:53:17;;;;;;;;;;;;;;;;;;5111828;28;19996;-88
2022/03/29 01:55:43;;;;;;;;;;;;;;;;;;5112113;28;19911;-87
2022/03/29 01:58:08;;;;;;;;;;;;;;;;;;5112499;28;19955;-90
2022/03/29 02:00:37;;;;;;;;;;;;;;;;;;5111580;28;19908;-92
2022/03/29 02:03:03;;;;;;;;;;;;;;;;;;5111466;28;20011;-88
2022/03/29 02:05:30;;;;;;;;;;;;;;;;;;5111220;28;19970;-86
2022/03/29 02:07:59;;;;;;;;;;;;;;;;;;5111586;28;19911;-90
2022/03/29 02:10:28;;;;;;;;;;;;;;;;;;5112596;28;19908;-90
2022/03/29 02:12:56;;;;;;;;;;;;;;;;;;5111785;28;19904;-88
2022/03/29 02:15:25;;;;;;;;;;;;;;;;;;5112277;28;20355;-88
2022/03/29 02:17:58;;;;;;;;;;;;;;;;;;5111632;28;19957;-89
2022/03/29 02:20:25;;;;;;;;;;;;;;;;;;5112057;28;19915;-89
2022/03/29 02:22:51;;;;;;;;;;;;;;;;;;5111605;28;20298;-88
2022/03/29 02:25:19;;;;;;;;;;;;;;;;;;5111660;28;19915;-91
2022/03/29 02:27:47;;;;;;;;;;;;;;;;;;5111501;28;19907;-87
2022/03/29 02:30:13;;;;;;;;;;;;;;;;;;5112414;28;19908;-88
2022/03/29 02:32:39;;;;;;;;;;;;;;;;;;5112189;28;19915;-90
2022/03/29 02:35:08;;;;;;;;;;;;;;;;;;5112132;28;20360;-90
2022/03/29 02:37:35;;;;;;;;;;;;;;;;;;5111727;28;20113;-89
2022/03/29 02:40:01;;;;;;;;;;;;;;;;;;5111948;28;19933;-87
2022/03/29 02:42:27;;;;;;;;;;;;;;;;;;5111077;28;19919;-89
2022/03/29 02:44:53;;;;;;;;;;;;;;;;;;5111216;28;19969;-91
2022/03/29 02:47:19;;;;;;;;;;;;;;;;;;5111367;28;19912;-88
2022/03/29 02:49:45;;;;;;;;;;;;;;;;;;5111687;28;19908;-89
2022/03/29 02:52:11;;;;;;;;;;;;;;;;;;5111015;28;19908;-88
2022/03/29 02:54:36;;;;;;;;;;;;;;;;;;5110981;28;19912;-88
2022/03/29 02:57:02;;;;;;;;;;;;;;;;;;5110870;28;20265;-89
2022/03/29 02:59:28;;;;;;;;;;;;;;;;;;5111045;28;19915;-90
2022/03/29 03:01:54;;;;;;;;;;;;;;;;;;5111559;28;19914;-89
2022/03/29 03:04:20;;;;;;;;;;;;;;;;;;5111092;28;19916;-89
2022/03/29 03:06:46;;;;;;;;;;;;;;;;;;5112384;28;19965;-89
2022/03/29 03:09:14;;;;;;;;;;;;;;;;;;5111590;28;19914;-90
2022/03/29 03:11:40;;;;;;;;;;;;;;;;;;5111035;28;19907;-88
2022/03/29 03:14:06;;;;;;;;;;;;;;;;;;5110865;28;20156;-90
2022/03/29 03:16:32;;;;;;;;;;;;;;;;;;5110817;28;19974;-87
2022/03/29 03:18:58;;;;;;;;;;;;;;;;;;5110604;28;20458;-90
2022/03/29 03:21:24;;;;;;;;;;;;;;;;;;5110778;28;19908;-89
2022/03/29 03:23:52;;;;;;;;;;;;;;;;;;5110367;28;19916;-88
2022/03/29 03:26:18;;;;;;;;;;;;;;;;;;5110091;28;19959;-88
2022/03/29 03:28:47;;;;;;;;;;;;;;;;;;5111073;28;19908;-88
2022/03/29 03:31:13;;;;;;;;;;;;;;;;;;5111670;28;19908;-87
2022/03/29 03:33:39;;;;;;;;;;;;;;;;;;5110193;28;20260;-88
2022/03/29 03:36:05;;;;;;;;;;;;;;;;;;5110064;28;19908;-89
2022/03/29 03:38:31;;;;;;;;;;;;;;;;;;5109647;28;19912;-87
2022/03/29 03:40:57;;;;;;;;;;;;;;;;;;5109538;28;20211;-89
2022/03/29 03:43:23;;;;;;;;;;;;;;;;;;5110601;28;19961;-87
2022/03/29 03:45:49;;;;;;;;;;;;;;;;;;5110994;28;19919;-87
2022/03/29 03:48:15;;;;;;;;;;;;;;;;;;5111913;28;20265;-85
2022/03/29 03:50:41;;;;;;;20.20;9.00;;;;;;;;;;5109175;28;20388;-91
2022/03/29 03:53:07;;;;;;;16.30;8.45;;;;;;;;;;5111523;28;20043;-89
2022/03/29 03:55:33;;;;;;;21.00;8.10;;;;;;;;;;5111044;28;20041;-90
2022/03/29 03:57:59;;;;;;;24.65;8.43;;;;;;;;;;5110482;28;20031;-91
2022/03/29 04:00:25;;;;;;;23.52;9.07;;;;;;;;;;5110939;28;20096;-92
2022/03/29 04:02:53;;;;;;;19.63;8.77;;;;;;;;;;5112230;28;20040;-90
2022/03/29 04:05:21;;;;;;;21.27;8.43;;;;;;;;;;5115693;28;20028;-88
2022/03/29 04:07:47;;;;;;;21.83;8.95;;;;;;;;;;5114122;28;20273;-88
2022/03/29 04:10:16;;;;;;;24.25;8.38;;;;;;;;;;5115545;28;20020;-90
2022/03/29 04:12:42;;;;;;;23.20;8.63;;;;;;;;;;5113836;28;20034;-92
2022/03/29 04:15:09;;;;;;;17.88;9.10;;;;;;;;;;5113748;28;20059;-85
2022/03/29 04:17:35;;;;;;;18.02;9.13;;;;;;;;;;5113812;28;20028;-88
2022/03/29 04:20:01;;;;;;;25.27;9.25;;;;;;;;;;5112921;28;20085;-91
2022/03/29 04:22:27;;;;;;;23.33;9.20;;;;;;;;;;5114096;28;20533;-88
2022/03/29 04:25:10;;;;;;;20.38;8.90;;;;;;;;;;5107225;28;20032;-88
2022/03/29 04:27:36;;;;;;;23.73;9.13;;;;;;;;;;5104180;28;20072;-89
2022/03/29 04:30:02;;;;;;;23.20;10.48;;;;;;;;;;5116635;27;20032;-91
2022/03/29 04:32:28;;;;;;;29.83;10.15;;;;;;;;;;5119406;28;20019;-89
2022/03/29 04:34:54;;;;;;;24.40;10.23;;;;;;;;;;5119077;28;20466;-89
2022/03/29 04:37:20;;;;;;;27.67;10.43;;;;;;;;;;5120831;28;20079;-90
2022/03/29 04:39:46;;;;;;;24.83;10.38;;;;;;;;;;5117456;28;20051;-85
2022/03/29 04:42:13;;;;;;;19.98;9.80;;;;;;;;;;5112597;28;20024;-87
2022/03/29 04:44:39;;;;;;;23.38;9.85;;;;;;;;;;5111918;28;20028;-87
2022/03/29 04:47:05;;;;;;;18.80;9.50;;;;;;;;;;5112690;28;20099;-86
2022/03/29 04:49:32;;;;;;;18.90;9.77;;;;;;;;;;5111911;28;20088;-87
2022/03/29 04:51:59;;;;;;;21.30;9.82;;;;;;;;;;5111837;28;20030;-87
2022/03/29 04:54:25;;;;;;;30.42;9.35;;;;;;;;;;5111836;28;20028;-88
2022/03/29 04:56:51;;;;;;;20.27;9.13;;;;;;;;;;5113715;28;20102;-88
2022/03/29 04:59:17;;;;;;;28.45;9.45;;;;;;;;;;5112299;28;20020;-87
2022/03/29 05:01:43;;;;;;;27.70;9.45;;;;;;;;;;5111871;28;20491;-88
2022/03/29 05:04:09;;;;;;;25.17;9.95;;;;;;;;;;5112969;28;20040;-88
2022/03/29 05:06:35;;;;;;;26.25;9.05;;;;;;;;;;5111518;28;20016;-88
2022/03/29 05:09:02;;;;;;;25.67;9.70;;;;;;;;;;5112949;28;20038;-87
2022/03/29 05:11:27;;;;;;;18.23;8.90;;;;;;;;;;5111414;28;20496;-88
2022/03/29 05:13:53;;;;;;;22.58;8.55;;;;;;;;;;5111104;28;20024;-86
2022/03/29 05:16:20;;;;;;;18.17;8.90;;;;;;;;;;5112802;28;20028;-88
2022/03/29 05:18:46;;;;;;;23.80;9.35;;;;;;;;;;5111583;28;20031;-87
2022/03/29 05:21:20;;;;;;;17.42;9.13;;;;;;;;;;5113384;28;20094;-89
2022/03/29 05:23:46;;;;;;;22.30;9.15;;;;;;;;;;5112786;28;20101;-90
2022/03/29 05:26:13;;;;;;;21.42;9.27;;;;;;;;;;5112475;28;20115;-90
2022/03/29 05:28:39;;;;;;;25.50;8.93;;;;;;;;;;5112313;28;20036;-90
2022/03/29 05:31:06;;;;;;;23.80;9.07;;;;;;;;;;5112331;28;20020;-90
2022/03/29 05:33:32;;;;;;;33.42;9.80;;;;;;;;;;5112301;28;20032;-89
2022/03/29 05:35:58;;;;;;;22.92;9.73;;;;;;;;;;5112390;28;20102;-90
2022/03/29 05:38:26;;;;;;;25.88;10.02;;;;;;;;;;5113076;28;20357;-90
2022/03/29 05:40:53;;;;;;;20.52;10.15;;;;;;;;;;5113720;28;20118;-89
2022/03/29 05:43:19;;;;;;;20.95;9.40;;;;;;;;;;5112906;28;20038;-89
2022/03/29 05:48:51;;;;;;;24.63;10.18;;;;;;;;;;5112151;28;20085;-90
2022/03/29 05:51:15;;;;;;;27.80;11.57;;;;;;;;;;5113270;28;20047;-89
2022/03/29 05:53:42;;;;;;;28.45;11.35;;;;;;;;;;5111699;28;20027;-89
2022/03/29 05:56:08;;;;;;;23.98;10.50;;;;;;;;;;5112028;28;20032;-90
2022/03/29 05:58:34;;;;;;;31.83;11.20;;;;;;;;;;5111926;28;20023;-90
2022/03/29 06:01:00;;;;;;;27.52;10.77;;;;;;;;;;5111900;28;20027;-89
2022/03/29 06:03:26;;;;;;;23.33;10.23;;;;;;;;;;5111865;28;20031;-90
2022/03/29 06:05:52;;;;;;;21.15;9.13;;;;;;;;;;5112357;28;20072;-90
2022/03/29 06:08:18;;;;;;;21.35;9.73;;;;;;;;;;5111886;28;20073;-89
2022/03/29 06:10:44;;;;;;;23.38;9.32;;;;;;;;;;5111581;28;20023;-90
2022/03/29 06:13:12;;;;;;;25.33;9.95;;;;;;;;;;5111525;28;20027;-90
2022/03/29 06:15:38;;;;;;;19.27;9.43;;;;;;;;;;5111659;28;20024;-91
2022/03/29 06:18:04;;;;;;;20.02;10.05;;;;;;;;;;5111777;28;20035;-89
2022/03/29 06:20:31;;;;;;;24.17;11.32;;;;;;;;;;5111470;28;20020;-89
2022/03/29 06:22:57;;;;;;;23.10;10.98;;;;;;;;;;5111309;28;20448;-88
2022/03/29 06:25:23;;;;;;;26.38;10.52;;;;;;;;;;5112058;28;20024;-90
2022/03/29 06:27:49;;;;;;;19.33;9.90;;;;;;;;;;5111574;28;20031;-89
2022/03/29 06:30:16;;;;;;;27.23;10.73;;;;;;;;;;5111137;28;20019;-90
2022/03/29 06:32:49;;;;;;;28.25;11.32;;;;;;;;;;5111196;28;20027;-90
2022/03/29 06:35:18;;;;;;;30.40;11.07;;;;;;;;;;5111345;28;20024;-90
2022/03/29 06:37:44;;;;;;;24.58;10.45;;;;;;;;;;5110924;28;20031;-90
2022/03/29 06:40:10;;;;;;;24.13;10.20;;;;;;;;;;5111163;28;20371;-90
2022/03/29 06:42:36;;;;;;;23.58;9.98;;;;;;;;;;5110935;28;20031;-90
2022/03/29 06:45:03;;;;;;;20.33;10.00;;;;;;;;;;5110842;28;20023;-89
2022/03/29 06:47:29;;;;;;;22.60;9.43;;;;;;;;;;5110973;28;20476;-89
2022/03/29 06:49:55;;;;;;;22.77;9.48;;;;;;;;;;5111513;28;20019;-90
2022/03/29 06:52:26;;;;;;;25.45;10.40;;;;;;;;;;5110839;28;20115;-90
2022/03/29 06:54:52;;;;;;;23.42;10.13;;;;;;;;;;5110849;28;20023;-90
2022/03/29 06:57:18;;;;;;;26.38;9.65;;;;;;;;;;5110626;28;20101;-89
2022/03/29 06:59:44;;;;;;;24.40;9.80;;;;;;;;;;5110724;28;20020;-90
2022/03/29 07:02:10;;;;;;;34.45;10.20;;;;;;;;;;5110572;28;20032;-90
2022/03/29 07:04:36;;;;;;;21.73;9.98;;;;;;;;;;5111788;28;20020;-88
2022/03/29 07:07:02;;;;;;;22.92;9.48;;;;;;;;;;5110256;28;20532;-90
2022/03/29 07:12:13;;;;;;;26.73;10.10;;;;;;;;;;5111668;28;20041;-89
2022/03/29 07:14:39;;;;;;;22.50;9.07;;;;;;;;;;5110420;28;20119;-89
2022/03/29 07:17:08;;;;;;;25.52;10.70;;;;;;;;;;5110261;28;20049;-89
2022/03/29 07:19:34;;;;;;;26.85;10.00;;;;;;;;;;5110327;28;20479;-89
2022/03/29 07:22:02;;;;;;;29.58;10.13;;;;;;;;;;5110733;28;20144;-89
2022/03/29 07:24:28;;;;;;;;;;;;;;;;;;5111068;28;20442;-89
2022/03/29 07:26:54;;;;;;;24.23;10.13;;;;;;;;;;5110189;28;19904;-90
2022/03/29 07:29:20;;;;;;;27.25;10.07;;;;;;;;;;5110297;28;20206;-89
2022/03/29 07:31:46;;;;;;;30.33;9.73;;;;;;;;;;5110113;28;20106;-90
2022/03/29 07:34:12;;;;;;;26.05;10.10;;;;;;;;;;5110137;28;20070;-90
2022/03/29 07:36:38;;;;;;;27.85;9.95;;;;;;;;;;5110266;28;20055;-89
2022/03/29 07:39:05;;;;;;;22.95;9.88;;;;;;;;;;5110180;28;20015;-89
2022/03/29 07:41:32;;;;;;;23.67;10.55;;;;;;;;;;5110714;28;20026;-88
2022/03/29 07:43:58;;;;;;;28.13;11.30;;;;;;;;;;5110961;28;20073;-90
2022/03/29 07:46:25;;;;;;;33.85;10.88;;;;;;;;;;5110102;28;20459;-89
2022/03/29 07:48:51;;;;;;;29.95;10.93;;;;;;;;;;5110179;28;20198;-89
2022/03/29 07:51:18;;;;;;;42.38;11.07;;;;;;;;;;5109846;28;20023;-90
2022/03/29 07:53:44;;;;;;;26.73;10.52;;;;;;;;;;5109772;28;20035;-90
2022/03/29 07:56:10;;;;;;;25.88;10.57;;;;;;;;;;5109992;28;20020;-91
2022/03/29 07:58:36;;;;;;;33.60;11.85;;;;;;;;;;5110058;28;20053;-92
2022/03/29 08:01:02;;;;;;;31.98;11.68;;;;;;;;;;5110320;28;20020;-89
2022/03/29 08:03:32;;;;;;;32.70;11.68;;;;;;;;;;5110394;28;20036;-88
2022/03/29 08:05:59;;;;;;;29.75;11.82;;;;;;;;;;5110294;28;20020;-87
2022/03/29 08:08:25;;;;;;;36.40;13.43;;;;;;;;;;5109776;28;20024;-90
2022/03/29 08:10:51;;;;;;;38.83;12.88;;;;;;;;;;5109988;28;20034;-87
2022/03/29 08:13:18;;;;;;;32.50;11.70;;;;;;;;;;5109743;28;20110;-89
2022/03/29 08:15:46;;;;;;;31.95;11.82;;;;;;;;;;5109663;28;20028;-88
2022/03/29 08:18:12;;;;;;;31.17;11.13;;;;;;;;;;5109579;28;20031;-87
2022/03/29 08:20:39;;;;;;;27.60;11.52;;;;;;;;;;5109742;28;20032;-88
2022/03/29 08:23:05;;;;;;;23.67;11.30;;;;;;;;;;5109633;28;20028;-90
2022/03/29 08:25:33;;;;;;;29.08;10.82;;;;;;;;;;5110269;28;20027;-89
2022/03/29 08:27:59;;;;;;;30.90;11.73;;;;;;;;;;5110360;28;20027;-89
2022/03/29 08:30:26;;;;;;;23.90;11.63;;;;;;;;;;5109322;28;20032;-90
2022/03/29 08:32:52;;;;;;;30.65;13.68;;;;;;;;;;5109459;28;20015;-90
2022/03/29 08:35:19;;;;;;;37.30;14.68;;;;;;;;;;5109745;28;20031;-90
2022/03/29 08:37:46;;;;;;;41.17;14.75;;;;;;;;;;5109502;28;20026;-91
2022/03/29 08:40:14;;;;;;;43.08;14.77;;;;;;;;;;5109457;28;20030;-89
2022/03/29 08:42:42;;;;;;;41.15;15.25;;;;;;;;;;5109364;28;20480;-90
2022/03/29 08:45:09;;;;;;;33.40;14.17;;;;;;;;;;5109391;28;20035;-90
2022/03/29 08:47:35;;;;;;;47.63;15.65;;;;;;;;;;5109395;28;20262;-88
2022/03/29 08:50:03;;;;;;;38.47;14.77;;;;;;;;;;5110408;28;20126;-92
2022/03/29 08:52:29;;;;;;;33.13;13.55;;;;;;;;;;5112930;28;20396;-89
2022/03/29 08:54:56;;;;;;;33.45;12.93;;;;;;;;;;5113034;28;20043;-90
2022/03/29 08:57:22;;;;;;;26.45;11.80;;;;;;;;;;5112735;28;20026;-90
2022/03/29 08:59:48;;;;;;;29.48;11.85;;;;;;;;;;5113038;28;20503;-91
2022/03/29 09:02:18;;;;;;;25.30;11.50;;;;;;;;;;5112771;28;20023;-90
2022/03/29 09:04:45;;;;;;;28.05;12.73;;;;;;;;;;5112905;28;20500;-88
2022/03/29 09:07:11;;;;;;;27.20;11.23;;;;;;;;;;5112991;28;20073;-89
2022/03/29 09:09:40;;;;;;;26.42;12.13;;;;;;;;;;5112745;28;20024;-91
2022/03/29 09:12:05;;;;;;;;;;;;;;;;;;5113031;28;20072;-89
2022/03/29 09:14:33;;;;;;;23.00;10.32;;;;;;;;;;5113310;28;19904;-89
2022/03/29 09:16:59;;;;;;;23.73;10.65;;;;;;;;;;5112641;28;20023;-90
2022/03/29 09:19:25;;;;;;;26.15;11.77;;;;;;;;;;5112711;28;20115;-89
2022/03/29 09:21:55;;;;;;;19.65;11.00;;;;;;;;;;5112620;28;20031;-89
2022/03/29 09:24:22;;;;;;;25.65;11.45;;;;;;;;;;5112321;28;20039;-89
2022/03/29 09:26:52;;;;;;;19.48;10.63;;;;;;;;;;5112325;28;20029;-90
2022/03/29 09:29:26;;;;;;;26.20;11.38;;;;;;;;;;5112358;28;20024;-88
2022/03/29 09:32:09;;;;;;;32.65;12.15;;;;;;;;;;5112449;28;20024;-89
2022/03/29 09:34:36;;;;;;;27.67;12.50;;;;;;;;;;5112944;28;20039;-90
2022/03/29 09:37:03;;;;;;;23.63;11.88;;;;;;;;;;5112863;28;20032;-91
2022/03/29 09:39:32;;;;;;;26.00;11.98;;;;;;;;;;5112614;28;20504;-90
2022/03/29 09:41:59;;;;;;;23.23;11.73;;;;;;;;;;5112133;28;20562;-90
2022/03/29 09:44:33;;;;;;;22.00;11.15;;;;;;;;;;5112102;28;20035;-90
2022/03/29 09:47:04;;;;;;;26.13;12.38;;;;;;;;;;5112132;28;20020;-90
2022/03/29 09:49:31;;;;;;;29.73;12.50;;;;;;;;;;5112048;28;20027;-91
2022/03/29 09:52:10;;;;;;;24.02;12.23;;;;;;;;;;5112153;28;20024;-89
2022/03/29 09:54:37;;;;;;;27.10;12.57;;;;;;;;;;5112565;28;20039;-89
2022/03/29 09:57:04;;;;;;;29.15;12.80;;;;;;;;;;5112592;28;20024;-90
2022/03/29 09:59:32;;;;;;;30.10;13.70;;;;;;;;;;5111683;28;20027;-90
2022/03/29 10:01:58;;;;;;;27.73;13.60;;;;;;;;;;5111815;28;20026;-90
2022/03/29 10:04:26;;;;;;;34.33;13.27;;;;;;;;;;5111818;28;20542;-89
2022/03/29 10:06:58;;;;;;;22.67;13.00;;;;;;;;;;5111714;28;20023;-90
2022/03/29 10:09:27;;;;;;;36.85;13.98;;;;;;;;;;5111520;28;20323;-89
2022/03/29 10:11:57;;;;;;;26.73;13.63;;;;;;;;;;5111472;28;20476;-90
2022/03/29 10:14:25;;;;;;;27.15;11.45;;;;;;;;;;5111460;28;20039;-89
2022/03/29 10:16:52;;;;;;;22.48;11.73;;;;;;;;;;5111404;28;20028;-89
2022/03/29 10:19:19;;;;;;;28.30;12.85;;;;;;;;;;5111607;28;20145;-90
2022/03/29 10:21:46;;;;;;;26.38;13.25;;;;;;;;;;5111415;28;20019;-90
2022/03/29 10:24:16;;;;;;;22.27;12.75;;;;;;;;;;5111308;28;20036;-89
2022/03/29 10:26:43;;;;;;;24.30;11.95;;;;;;;;;;5111495;28;20024;-89
2022/03/29 10:29:10;;;;;;;26.58;12.02;;;;;;;;;;5111737;28;20114;-88
2022/03/29 10:31:41;;;;;;;24.90;11.75;;;;;;;;;;5112225;28;20028;-89
2022/03/29 10:34:13;;;;;;;23.20;11.82;;;;;;;;;;5111813;28;20036;-91
2022/03/29 10:36:58;;;;;;;25.23;11.25;;;;;;;;;;5112085;28;20081;-90
2022/03/29 10:39:35;;;;;;;24.77;11.10;;;;;;;;;;5110968;28;20034;-88
2022/03/29 10:42:01;;;;;;;26.25;11.52;;;;;;;;;;5110729;28;20028;-89
2022/03/29 10:44:47;;;;;;;30.42;11.55;;;;;;;;;;5111022;28;20048;-89
2022/03/29 10:47:26;;;;;;;25.48;12.02;;;;;;;;;;5110934;28;20055;-89
2022/03/29 10:49:52;;;;;;;21.77;11.27;;;;;;;;;;5110907;28;20023;-90
2022/03/29 10:52:21;;;;;;;26.80;11.70;;;;;;;;;;5110749;28;20391;-90
2022/03/29 10:54:48;;;;;;;28.02;12.15;;;;;;;;;;5110791;28;20491;-90
2022/03/29 10:57:14;;;;;;;20.23;11.45;;;;;;;;;;5110768;28;20028;-90
2022/03/29 10:59:40;;;;;;;24.88;11.73;;;;;;;;;;5111179;28;20030;-88
2022/03/29 11:02:20;;;;;;;23.23;11.07;;;;;;;;;;5111189;28;20023;-90
2022/03/29 11:05:06;;;;;;;24.00;11.18;;;;;;;;;;5110548;28;20040;-90
2022/03/29 11:07:34;;;;;;;19.50;10.43;;;;;;;;;;5110512;28;20027;-90
2022/03/29 11:10:26;;;;;;;26.38;11.60;;;;;;;;;;5110683;28;20031;-91
2022/03/29 11:12:59;;;;;;;26.85;11.27;;;;;;;;;;5072270;28;20031;-89
2022/03/29 11:15:27;;;;;;;31.77;12.02;;;;;;;;;;5110276;28;20024;-90
2022/03/29 11:17:53;;;;;;;25.45;12.52;;;;;;;;;;5110231;28;20024;-89
2022/03/29 11:20:32;;;;;;;29.15;11.68;;;;;;;;;;5110165;28;20031;-87
2022/03/29 11:23:08;;;;;;;22.33;10.80;;;;;;;;;;5110240;28;20035;-88
2022/03/29 11:25:39;;;;;;;36.35;11.95;;;;;;;;;;5110171;28;20375;-89
2022/03/29 11:28:09;;;;;;;24.77;10.40;;;;;;;;;;5110428;28;20089;-90
2022/03/29 11:30:35;;;;;;;30.00;11.00;;;;;;;;;;5110130;28;20024;-90
2022/03/29 11:33:05;;;;;;;35.95;11.93;;;;;;;;;;5110416;28;20024;-90
2022/03/29 11:35:32;;;;;;;19.67;10.98;;;;;;;;;;5110152;28;20081;-90
2022/03/29 11:38:16;;;;;;;31.08;10.70;;;;;;;;;;5110114;28;20024;-90
2022/03/29 11:40:43;;;;;;;27.17;11.25;;;;;;;;;;5110791;28;20059;-89
2022/03/29 11:43:19;;;;;;;30.15;12.13;;;;;;;;;;5111072;28;20032;-90
2022/03/29 11:45:47;;;;;;;27.25;11.25;;;;;;;;;;5109984;28;20102;-90
2022/03/29 11:48:14;;;;;;;24.80;11.27;;;;;;;;;;5110698;28;20027;-89
2022/03/29 11:50:44;;;;;;;24.63;11.83;;;;;;;;;;5110755;28;20540;-89
2022/03/29 11:53:33;;;;;;;24.88;12.27;;;;;;;;;;5110404;28;20036;-89
2022/03/29 11:55:59;;;;;;;27.35;12.27;;;;;;;;;;5109914;28;20027;-89
2022/03/29 11:58:30;;;;;;;26.98;12.30;;;;;;;;;;5109888;28;20102;-89
2022/03/29 12:01:00;;;;;;;30.05;11.82;;;;;;;;;;5109846;28;20051;-89
2022/03/29 12:03:32;;;;;;;27.60;12.25;;;;;;;;;;5109715;28;20028;-89
2022/03/29 12:06:17;;;;;;;23.70;11.60;;;;;;;;;;5109905;28;20028;-89
2022/03/29 12:08:47;;;;;;;27.42;12.00;;;;;;;;;;5110328;28;20026;-88
2022/03/29 12:11:15;;;;;;;26.45;10.60;;;;;;;;;;5110548;28;20028;-90
2022/03/29 12:13:41;;;;;;;25.92;11.52;;;;;;;;;;5110379;28;20019;-88
2022/03/29 12:16:18;;;;;;;30.90;11.73;;;;;;;;;;5109982;28;20024;-90
2022/03/29 12:18:45;;;;;;;27.10;11.80;;;;;;;;;;5110416;28;20436;-89
2022/03/29 12:21:12;;;;;;;24.88;11.45;;;;;;;;;;5110545;28;20023;-90
2022/03/29 12:23:38;;;;;;;29.60;11.40;;;;;;;;;;5109796;28;20048;-89
2022/03/29 12:26:05;;;;;;;32.03;10.90;;;;;;;;;;5111864;28;20031;-90
2022/03/29 12:28:32;;;;;;;34.15;11.57;;;;;;;;;;5113951;28;20034;-89
2022/03/29 12:30:58;;;;;;;29.63;11.02;;;;;;;;;;5113407;28;20020;-88
2022/03/29 12:33:25;;;;;;;23.65;11.23;;;;;;;;;;5113441;28;20020;-91
2022/03/29 12:36:03;;;;;;;34.75;11.82;;;;;;;;;;5113730;28;20020;-90
2022/03/29 12:38:38;;;;;;;26.70;11.02;;;;;;;;;;5113213;28;20169;-91
2022/03/29 12:41:05;;;;;;;32.30;11.05;;;;;;;;;;5113285;28;20020;-89
2022/03/29 12:43:33;;;;;;;24.88;9.90;;;;;;;;;;5113222;28;20063;-90
2022/03/29 12:45:59;;;;;;;20.15;9.18;;;;;;;;;;5113293;28;20489;-90
2022/03/29 12:48:26;;;;;;;24.15;9.70;;;;;;;;;;5113036;28;20032;-90
2022/03/29 12:50:53;;;;;;;24.38;9.43;;;;;;;;;;5113214;28;20027;-91
2022/03/29 12:53:19;;;;;;;25.13;9.88;;;;;;;;;;5112971;28;20535;-89
2022/03/29 12:55:59;;;;;;;20.45;9.05;;;;;;;;;;5113954;28;20479;-90
2022/03/29 12:58:32;;;;;;;25.27;9.75;;;;;;;;;;5113279;28;20023;-89
2022/03/29 13:00:58;;;;;;;27.50;10.10;;;;;;;;;;5113035;28;20026;-91
2022/03/29 13:03:24;;;;;;;25.38;9.10;;;;;;;;;;5113876;28;20035;-89
2022/03/29 13:05:50;;;;;;;27.38;10.23;;;;;;;;;;5112811;28;20023;-90
2022/03/29 13:08:23;;;;;;;27.25;9.32;;;;;;;;;;5113609;28;20121;-88
2022/03/29 13:10:52;;;;;;;23.88;8.88;;;;;;;;;;5112902;28;20027;-89
2022/03/29 13:13:24;;;;;;;29.20;9.73;;;;;;;;;;5113267;28;20015;-90
2022/03/29 13:15:51;;;;;;;25.17;8.85;;;;;;;;;;5112733;28;20028;-90
2022/03/29 13:18:19;;;;;;;21.90;8.77;;;;;;;;;;5113229;28;20032;-90
2022/03/29 13:20:45;;;;;;;28.27;9.43;;;;;;;;;;5113316;28;20024;-89
2022/03/29 13:23:11;;;;;;;27.33;9.07;;;;;;;;;;5112331;28;20081;-89
2022/03/29 13:25:38;;;;;;;24.02;9.63;;;;;;;;;;5112460;28;20118;-91
2022/03/29 13:28:05;;;;;;;20.58;8.48;;;;;;;;;;5112475;28;20020;-90
2022/03/29 13:30:31;;;;;;;23.48;8.55;;;;;;;;;;5112335;28;20028;-90
2022/03/29 13:32:58;;;;;;;21.92;8.65;;;;;;;;;;5112433;28;20379;-89
2022/03/29 13:35:24;;;;;;;27.13;8.23;;;;;;;;;;5112164;28;20034;-89
2022/03/29 13:37:50;;;;;;;17.40;8.55;;;;;;;;;;5111814;28;20068;-88
2022/03/29 13:40:16;;;;;;;19.63;9.15;;;;;;;;;;5112899;28;20028;-88
2022/03/29 13:42:42;;;;;;;21.58;8.93;;;;;;;;;;5112073;28;20023;-89
2022/03/29 13:45:10;;;;;;;25.40;8.50;;;;;;;;;;5112122;28;20081;-90
2022/03/29 13:47:36;;;;;;;19.02;8.45;;;;;;;;;;5112265;28;20020;-89
2022/03/29 13:50:03;;;;;;;25.10;9.23;;;;;;;;;;5112021;28;20031;-89
2022/03/29 13:52:29;;;;;;;20.02;8.90;;;;;;;;;;5111824;28;20020;-90
2022/03/29 13:54:55;;;;;;;19.58;7.85;;;;;;;;;;5111938;28;20084;-90
2022/03/29 13:57:21;;;;;;;18.60;7.90;;;;;;;;;;5112101;28;20027;-89
2022/03/29 13:59:47;;;;;;;21.27;8.80;;;;;;;;;;5113562;28;20539;-90
2022/03/29 14:02:14;;;;;;;26.52;8.52;;;;;;;;;;5112005;28;20031;-90
2022/03/29 14:04:40;;;;;;;23.08;8.88;;;;;;;;;;5111723;28;20134;-89
2022/03/29 14:07:07;;;;;;;17.50;8.07;;;;;;;;;;5111643;28;20028;-89
2022/03/29 14:09:33;;;;;;;20.42;8.43;;;;;;;;;;5111282;28;20033;-91
2022/03/29 14:11:59;;;;;;;15.85;7.38;;;;;;;;;;5111669;28;20028;-88
2022/03/29 14:14:25;;;;;;;20.27;7.43;;;;;;;;;;5111687;28;20488;-89
2022/03/29 14:16:51;;;;;;;17.88;7.97;;;;;;;;;;5112226;28;20118;-91
2022/03/29 14:19:18;;;;;;;21.85;7.43;;;;;;;;;;5112199;28;20030;-90
2022/03/29 14:21:44;;;;;;;18.48;7.30;;;;;;;;;;5111367;28;20064;-89
2022/03/29 14:24:10;;;;;;;22.05;7.57;;;;;;;;;;5111397;28;20089;-90
2022/03/29 14:26:36;;;;;;;21.10;7.00;;;;;;;;;;5111166;28;20020;-91
2022/03/29 14:29:03;;;;;;;15.50;7.45;;;;;;;;;;5111189;28;20051;-90
2022/03/29 14:31:31;;;;;;;21.58;7.10;;;;;;;;;;5112488;28;20023;-91
2022/03/29 14:33:58;;;;;;;14.20;6.82;;;;;;;;;;5111144;28;20048;-90
2022/03/29 14:36:25;;;;;;;18.20;5.97;;;;;;;;;;5111163;28;20016;-89
2022/03/29 14:38:51;;;;;;;13.18;5.85;;;;;;;;;;5111664;28;20423;-91
2022/03/29 14:41:17;;;;;;;21.08;7.20;;;;;;;;;;5110571;28;20070;-89
2022/03/29 14:43:43;;;;;;;16.75;6.65;;;;;;;;;;5110653;28;20312;-89
2022/03/29 14:46:09;;;;;;;13.98;5.97;;;;;;;;;;5110723;28;20030;-89
2022/03/29 14:48:36;;;;;;;12.48;6.30;;;;;;;;;;5109891;28;20020;-88
2022/03/29 14:51:03;;;;;;;16.52;5.75;;;;;;;;;;5111878;28;20030;-90
2022/03/29 14:53:32;;;;;;;12.77;5.40;;;;;;;;;;5110672;28;20076;-89
2022/03/29 14:56:01;;;;;;;14.25;6.13;;;;;;;;;;5110657;28;20027;-90
2022/03/29 14:58:27;;;;;;;11.32;5.78;;;;;;;;;;5110616;28;20015;-90
2022/03/29 15:00:54;;;;;;;15.07;5.88;;;;;;;;;;5110964;28;20403;-90
2022/03/29 15:03:20;;;;;;;16.45;6.40;;;;;;;;;;5111266;28;20178;-89
2022/03/29 15:05:46;;;;;;;16.08;5.90;;;;;;;;;;5110400;28;20036;-89